Time;durP1;ratioP1;P1;durP2;ratioP2;P2;SDS_P1;SDS_P2;PMS_P1;PMS_P2;Temp;Humidity;BMP_temperature;BMP_pressure;BME280_temperature;BME280_humidity;BME280_pressure;Samples;Min_cycle;Max_cycle;Signal;HPM_P1;HPM_P2
2022/01/03 00:01:10;;;;;;;11.40;10.60;;;10.40;99.90;;;;;;5071296;28;20244;-77
2022/01/03 00:03:37;;;;;;;11.67;10.77;;;10.40;99.90;;;;;;5069123;28;20722;-77
2022/01/03 00:06:04;;;;;;;11.77;10.77;;;10.40;99.90;;;;;;5072772;28;20198;-78
2022/01/03 00:08:32;;;;;;;11.57;10.77;;;10.40;99.90;;;;;;5071049;28;20364;-78
2022/01/03 00:10:59;;;;;;;11.93;11.13;;;10.40;99.90;;;;;;5071242;28;20234;-79
2022/01/03 00:13:26;;;;;;;11.63;10.90;;;10.40;99.90;;;;;;5071486;28;20193;-77
2022/01/03 00:15:55;;;;;;;11.73;10.87;;;10.50;99.90;;;;;;5071228;28;20205;-78
2022/01/03 00:18:24;;;;;;;11.93;11.07;;;10.50;99.90;;;;;;5076822;28;20210;-77
2022/01/03 00:20:56;;;;;;;12.03;11.10;;;10.50;99.90;;;;;;5077395;28;20645;-78
2022/01/03 00:23:26;;;;;;;11.17;10.50;;;10.50;99.90;;;;;;5073897;28;20709;-77
2022/01/03 00:26:01;;;;;;;11.83;10.80;;;10.60;99.90;;;;;;5077943;28;20224;-78
2022/01/03 00:28:35;;;;;;;11.40;10.70;;;10.60;99.90;;;;;;5066005;28;20208;-78
2022/01/03 00:31:05;;;;;;;11.73;10.90;;;10.60;99.90;;;;;;5068026;28;20214;-78
2022/01/03 00:33:33;;;;;;;11.43;10.53;;;10.60;99.90;;;;;;5072233;28;20190;-78
2022/01/03 00:36:02;;;;;;;11.37;10.57;;;10.60;99.90;;;;;;5083158;28;20205;-78
2022/01/03 00:38:31;;;;;;;11.93;11.00;;;10.60;99.90;;;;;;5090554;28;20201;-79
2022/01/03 00:41:00;;;;;;;11.57;10.77;;;10.70;99.90;;;;;;5084390;28;20218;-78
2022/01/03 00:43:27;;;;;;;11.80;10.80;;;10.70;99.90;;;;;;5086007;28;20223;-78
2022/01/03 00:45:55;;;;;;;11.60;10.80;;;10.70;99.90;;;;;;5082370;28;20208;-79
2022/01/03 00:48:25;;;;;;;12.00;11.00;;;10.70;99.90;;;;;;5082003;28;20248;-78
2022/01/03 00:50:52;;;;;;;11.50;10.80;;;10.80;99.90;;;;;;5080695;28;20218;-78
2022/01/03 00:53:19;;;;;;;11.47;10.67;;;10.80;99.90;;;;;;5083920;28;20197;-79
2022/01/03 00:56:01;;;;;;;11.57;10.73;;;10.80;99.90;;;;;;5078119;28;20549;-79
2022/01/03 00:58:34;;;;;;;11.30;10.40;;;10.80;99.90;;;;;;5090858;28;20224;-78
2022/01/03 01:01:02;;;;;;;11.40;10.70;;;10.70;99.90;;;;;;5082098;28;20237;-78
2022/01/03 01:03:37;;;;;;;11.43;10.70;;;10.70;99.90;;;;;;5075714;28;20260;-78
2022/01/03 01:06:07;;;;;;;11.40;10.60;;;10.70;99.90;;;;;;5078536;28;20777;-78
2022/01/03 01:08:35;;;;;;;11.43;10.70;;;10.80;99.90;;;;;;5078872;28;20191;-78
2022/01/03 01:11:04;;;;;;;11.30;10.57;;;10.70;99.90;;;;;;5082426;28;20222;-78
2022/01/03 01:13:34;;;;;;;11.50;10.80;;;10.70;99.90;;;;;;5091119;28;20641;-78
2022/01/03 01:16:05;;;;;;;12.20;11.30;;;10.70;99.90;;;;;;5082295;28;20262;-79
2022/01/03 01:18:37;;;;;;;11.77;10.83;;;10.80;99.90;;;;;;5075491;28;20248;-78
2022/01/03 01:21:05;;;;;;;11.47;10.70;;;10.70;99.90;;;;;;5078606;28;20218;-78
2022/01/03 01:23:33;;;;;;;12.30;11.23;;;10.70;99.90;;;;;;5078845;28;20705;-78
2022/01/03 01:28:46;;;;;;;12.10;11.20;;;10.80;99.90;;;;;;5075786;28;20195;-78
2022/01/03 01:31:20;;;;;;;11.23;10.43;;;10.80;99.90;;;;;;5082462;28;20601;-78
2022/01/03 01:33:53;;;;;;;13.20;12.13;;;10.80;99.90;;;;;;5081313;28;20194;-77
2022/01/03 01:36:24;;;;;;;12.63;11.77;;;10.80;99.90;;;;;;5081123;28;20198;-78
2022/01/03 01:38:53;;;;;;;12.30;11.37;;;10.80;99.90;;;;;;5082019;28;20199;-78
2022/01/03 01:41:23;;;;;;;13.20;11.83;;;10.80;99.90;;;;;;5079344;28;20275;-78
2022/01/03 01:43:57;;;;;;;12.37;11.13;;;10.80;99.90;;;;;;5076965;28;20218;-78
2022/01/03 01:46:24;;;;;;;11.67;10.87;;;10.80;99.90;;;;;;5074462;28;20293;-77
2022/01/03 01:49:05;;;;;;;12.17;11.17;;;10.80;99.90;;;;;;5074625;28;20198;-78
2022/01/03 01:51:35;;;;;;;12.30;11.40;;;10.80;99.90;;;;;;5072248;28;20294;-78
2022/01/03 01:54:06;;;;;;;12.30;11.10;;;10.80;99.90;;;;;;5074113;28;20195;-78
2022/01/03 01:56:54;;;;;;;11.70;11.00;;;10.70;99.90;;;;;;5072126;28;20199;-78
2022/01/03 01:59:34;;;;;;;11.90;10.90;;;10.70;99.90;;;;;;5076936;28;20271;-78
2022/01/03 02:02:04;;;;;;;11.60;10.80;;;10.70;99.90;;;;;;5077973;28;20209;-78
2022/01/03 02:04:52;;;;;;;11.80;11.10;;;10.70;99.90;;;;;;5062380;28;20226;-78
2022/01/03 02:07:41;;;;;;;12.10;11.07;;;10.70;99.90;;;;;;5077064;28;20194;-77
2022/01/03 02:10:10;;;;;;;12.47;11.57;;;10.70;99.90;;;;;;5077953;28;20226;-78
2022/01/03 02:12:40;;;;;;;11.80;10.90;;;10.70;99.90;;;;;;5068374;28;20204;-77
2022/01/03 02:15:11;;;;;;;11.60;10.80;;;10.80;99.90;;;;;;5066576;28;20290;-78
2022/01/03 02:17:40;;;;;;;11.50;10.43;;;10.80;99.90;;;;;;5082254;28;20241;-78
2022/01/03 02:20:13;;;;;;;11.67;10.67;;;10.80;99.90;;;;;;5075129;28;20222;-78
2022/01/03 02:22:42;;;;;;;11.50;10.63;;;10.80;99.90;;;;;;5092660;28;20214;-78
2022/01/03 02:25:15;;;;;;;11.67;10.67;;;10.80;99.90;;;;;;5075399;28;20199;-78
2022/01/03 02:27:42;;;;;;;11.27;10.40;;;10.80;99.90;;;;;;5068821;28;20199;-78
2022/01/03 02:30:12;;;;;;;11.40;10.70;;;10.80;99.90;;;;;;5076998;28;20214;-78
2022/01/03 02:32:40;;;;;;;11.43;10.63;;;10.80;99.90;;;;;;5069413;28;20183;-78
2022/01/03 02:35:07;;;;;;;11.73;10.70;;;10.80;99.90;;;;;;5066332;28;20202;-78
2022/01/03 02:37:38;;;;;;;11.60;10.73;;;10.80;99.90;;;;;;5078403;28;20244;-78
2022/01/03 02:40:07;;;;;;;11.70;10.73;;;10.80;99.90;;;;;;5074727;28;20310;-78
2022/01/03 02:42:34;;;;;;;11.37;10.63;;;10.80;99.90;;;;;;5078158;28;20846;-78
2022/01/03 02:45:04;;;;;;;11.37;10.57;;;10.70;99.90;;;;;;5068754;28;20663;-78
2022/01/03 02:47:31;;;;;;;11.57;10.77;;;10.70;99.90;;;;;;5077069;28;20201;-79
2022/01/03 02:49:59;;;;;;;12.13;11.13;;;10.70;99.90;;;;;;5075063;28;20214;-78
2022/01/03 02:52:26;;;;;;;11.07;10.40;;;10.70;99.90;;;;;;5075943;28;20663;-78
2022/01/03 02:54:54;;;;;;;11.90;10.90;;;10.70;99.90;;;;;;5082275;28;20241;-78
2022/01/03 02:57:23;;;;;;;12.00;11.10;;;10.70;99.90;;;;;;5075493;28;20210;-78
2022/01/03 02:59:54;;;;;;;12.50;11.70;;;10.70;99.90;;;;;;5070112;28;20202;-78
2022/01/03 03:02:22;;;;;;;11.80;11.00;;;10.70;99.90;;;;;;5069159;28;20228;-79
2022/01/03 03:04:54;;;;;;;12.10;11.10;;;10.60;99.90;;;;;;5078352;28;20189;-78
2022/01/03 03:07:23;;;;;;;11.63;10.90;;;10.60;99.90;;;;;;5072202;28;20275;-78
2022/01/03 03:09:50;;;;;;;11.77;10.97;;;10.60;99.90;;;;;;5076948;28;20206;-77
2022/01/03 03:12:19;;;;;;;11.43;10.43;;;10.60;99.90;;;;;;5069739;28;20244;-78
2022/01/03 03:14:47;;;;;;;11.90;10.90;;;10.60;99.90;;;;;;5071557;28;20187;-78
2022/01/03 03:17:14;;;;;;;12.40;11.30;;;10.60;99.90;;;;;;5057197;28;20253;-77
2022/01/03 03:19:55;;;;;;;11.70;10.80;;;10.60;99.90;;;;;;5076079;28;20285;-78
2022/01/03 03:22:23;;;;;;;11.80;10.90;;;10.60;99.90;;;;;;5073812;28;20213;-78
2022/01/03 03:24:51;;;;;;;11.67;10.87;;;10.50;99.90;;;;;;5076945;28;20211;-78
2022/01/03 03:27:20;;;;;;;11.77;10.97;;;10.50;99.90;;;;;;5073077;28;20194;-78
2022/01/03 03:29:50;;;;;;;12.53;11.53;;;10.50;99.90;;;;;;5075387;28;20285;-78
2022/01/03 03:32:19;;;;;;;11.17;10.43;;;10.40;99.90;;;;;;5067636;28;20562;-78
2022/01/03 03:34:47;;;;;;;11.67;10.73;;;10.40;99.90;;;;;;5075955;28;20190;-79
2022/01/03 03:37:15;;;;;;;11.70;10.80;;;10.40;99.90;;;;;;5074591;28;20205;-78
2022/01/03 03:39:44;;;;;;;12.00;11.10;;;10.30;99.90;;;;;;5084394;28;20191;-79
2022/01/03 03:42:12;;;;;;;12.77;11.67;;;10.30;99.90;;;;;;5080410;28;20205;-79
2022/01/03 03:44:41;;;;;;;11.87;10.97;;;10.30;99.90;;;;;;5080525;28;20216;-80
2022/01/03 03:47:09;;;;;;;12.20;11.30;;;10.30;99.90;;;;;;5102902;28;20205;-83
2022/01/03 03:49:36;;;;;;;11.63;10.73;;;10.30;99.90;;;;;;5085339;28;20686;-82
2022/01/03 03:52:05;;;;;;;11.73;10.93;;;10.20;99.90;;;;;;5072750;28;20260;-83
2022/01/03 03:54:34;;;;;;;12.00;10.73;;;10.20;99.90;;;;;;5074616;28;20220;-83
2022/01/03 03:57:03;;;;;;;12.20;11.33;;;10.20;99.90;;;;;;5090184;28;20189;-82
2022/01/03 03:59:32;;;;;;;12.63;11.73;;;10.20;99.90;;;;;;5063550;28;20194;-82
2022/01/03 04:02:01;;;;;;;11.97;10.80;;;10.20;99.90;;;;;;5076360;22;20223;-80
2022/01/03 04:04:28;;;;;;;11.47;10.77;;;10.20;99.90;;;;;;5047308;28;20203;-79
2022/01/03 04:06:55;;;;;;;11.87;10.90;;;10.10;99.90;;;;;;5050379;28;20684;-81
2022/01/03 04:09:23;;;;;;;12.27;11.23;;;10.10;99.90;;;;;;5047095;28;20626;-80
2022/01/03 04:11:50;;;;;;;12.70;11.60;;;10.10;99.90;;;;;;5035611;28;20222;-80
2022/01/03 04:14:17;;;;;;;12.23;11.10;;;10.00;99.90;;;;;;5049909;28;20202;-80
2022/01/03 04:16:44;;;;;;;11.63;10.83;;;10.10;99.90;;;;;;5044933;28;20196;-79
2022/01/03 04:19:15;;;;;;;12.30;11.27;;;10.00;99.90;;;;;;5048844;28;20206;-82
2022/01/03 04:21:42;;;;;;;11.80;11.00;;;10.00;99.90;;;;;;5044694;28;20310;-81
2022/01/03 04:24:11;;;;;;;12.33;11.30;;;10.00;99.90;;;;;;5038498;28;20312;-82
2022/01/03 04:26:39;;;;;;;11.80;10.77;;;9.90;99.90;;;;;;5045669;28;20199;-78
2022/01/03 04:29:07;;;;;;;6.50;5.13;;;9.90;99.90;;;;;;5047984;28;20571;-78
2022/01/03 04:31:35;;;;;;;13.23;12.23;;;9.90;99.90;;;;;;5040048;28;20210;-79
2022/01/03 04:34:02;;;;;;;10.30;9.17;;;9.80;99.90;;;;;;5041846;28;20665;-79
2022/01/03 04:36:31;;;;;;;4.50;2.80;;;9.80;99.90;;;;;;5044729;28;20711;-78
2022/01/03 04:38:58;;;;;;;4.03;2.90;;;9.80;99.90;;;;;;5044585;28;20199;-79
2022/01/03 04:41:26;;;;;;;5.17;4.67;;;9.80;99.90;;;;;;5041005;28;20283;-78
2022/01/03 04:43:52;;;;;;;7.77;7.07;;;9.70;99.90;;;;;;5041840;28;20688;-78
2022/01/03 04:46:19;;;;;;;13.23;12.20;;;9.70;99.90;;;;;;5050167;28;20187;-78
2022/01/03 04:48:46;;;;;;;8.70;7.87;;;9.70;99.90;;;;;;5045815;28;20191;-78
2022/01/03 04:51:13;;;;;;;10.13;9.47;;;9.70;99.90;;;;;;5047105;28;20649;-78
2022/01/03 04:53:42;;;;;;;11.47;10.67;;;9.70;99.90;;;;;;5042140;28;20188;-78
2022/01/03 04:56:11;;;;;;;12.83;11.93;;;9.70;99.90;;;;;;5046725;28;20585;-78
2022/01/03 04:58:39;;;;;;;11.43;10.53;;;9.70;99.90;;;;;;5044317;28;20215;-78
2022/01/03 05:01:07;;;;;;;11.70;10.70;;;9.60;99.90;;;;;;5041587;28;20233;-78
2022/01/03 05:03:34;;;;;;;11.67;10.70;;;9.60;99.90;;;;;;5041656;28;20278;-78
2022/01/03 05:06:02;;;;;;;11.37;10.60;;;9.70;99.90;;;;;;5042076;28;20231;-78
2022/01/03 05:08:30;;;;;;;12.00;11.20;;;9.60;99.90;;;;;;5045107;28;20200;-79
2022/01/03 05:11:00;;;;;;;11.27;10.40;;;9.60;99.90;;;;;;5045775;28;20219;-78
2022/01/03 05:13:27;;;;;;;11.37;10.47;;;9.60;99.90;;;;;;5041970;28;20199;-79
2022/01/03 05:15:55;;;;;;;11.00;10.23;;;9.50;99.90;;;;;;5045881;28;20200;-79
2022/01/03 05:18:23;;;;;;;11.00;10.20;;;9.50;99.90;;;;;;5041692;28;20206;-78
2022/01/03 05:20:50;;;;;;;11.43;10.83;;;9.50;99.90;;;;;;5041709;28;20220;-78
2022/01/03 05:23:17;;;;;;;11.60;10.77;;;9.50;99.90;;;;;;5043824;28;20200;-78
2022/01/03 05:25:45;;;;;;;11.37;10.57;;;9.50;99.90;;;;;;5047890;28;20279;-78
2022/01/03 05:28:14;;;;;;;11.80;10.80;;;9.50;99.90;;;;;;5050095;28;20655;-78
2022/01/03 05:30:41;;;;;;;11.47;10.57;;;9.40;99.90;;;;;;5046268;28;20768;-78
2022/01/03 05:33:08;;;;;;;12.80;11.37;;;9.50;99.90;;;;;;5050334;28;20690;-78
2022/01/03 05:35:36;;;;;;;12.33;11.40;;;9.50;99.90;;;;;;5046275;28;20295;-78
2022/01/03 05:38:03;;;;;;;12.00;10.93;;;9.40;99.90;;;;;;5045033;28;20763;-78
2022/01/03 05:40:30;;;;;;;12.00;11.10;;;9.40;99.90;;;;;;5045202;28;20221;-78
2022/01/03 05:42:58;;;;;;;11.80;10.80;;;9.40;99.90;;;;;;5053436;28;20269;-78
2022/01/03 05:45:26;;;;;;;11.43;10.40;;;9.40;99.90;;;;;;5044971;28;20210;-78
2022/01/03 05:47:55;;;;;;;11.60;10.60;;;9.40;99.90;;;;;;5045832;28;20202;-79
2022/01/03 05:50:22;;;;;;;11.23;10.43;;;9.40;99.90;;;;;;5049562;28;20717;-78
2022/01/03 05:52:51;;;;;;;11.60;10.60;;;9.40;99.90;;;;;;5048076;28;20199;-78
2022/01/03 05:55:20;;;;;;;11.60;10.73;;;9.40;99.90;;;;;;5044088;28;20225;-78
2022/01/03 05:57:47;;;;;;;13.03;12.00;;;9.40;99.90;;;;;;5047385;28;20576;-78
2022/01/03 06:00:22;;;;;;;11.80;10.93;;;9.40;99.90;;;;;;5052769;28;20292;-80
2022/01/03 06:02:54;;;;;;;11.00;10.30;;;9.30;99.90;;;;;;5046851;28;20198;-79
2022/01/03 06:05:39;;;;;;;11.97;10.97;;;9.30;99.90;;;;;;5049208;28;20304;-79
2022/01/03 06:08:07;;;;;;;10.70;10.00;;;9.20;99.90;;;;;;5049132;28;20198;-78
2022/01/03 06:10:41;;;;;;;14.17;13.27;;;9.20;99.90;;;;;;5045582;28;20357;-78
2022/01/03 06:13:13;;;;;;;11.40;10.57;;;9.20;99.90;;;;;;5049361;28;20302;-78
2022/01/03 06:15:41;;;;;;;11.70;10.80;;;9.20;99.90;;;;;;5044630;28;20290;-77
2022/01/03 06:18:14;;;;;;;11.97;11.03;;;9.10;99.90;;;;;;5041823;28;20230;-80
2022/01/03 06:20:46;;;;;;;12.37;11.37;;;9.10;99.90;;;;;;5046461;28;20313;-79
2022/01/03 06:23:16;;;;;;;12.30;11.30;;;9.10;99.90;;;;;;5041409;28;20207;-80
2022/01/03 06:25:43;;;;;;;12.77;11.87;;;9.10;99.90;;;;;;5044538;28;20309;-79
2022/01/03 06:28:11;;;;;;;11.93;10.83;;;9.10;99.90;;;;;;5040595;28;20286;-80
2022/01/03 06:30:43;;;;;;;11.97;10.97;;;9.20;99.90;;;;;;5040456;28;20221;-79
2022/01/03 06:33:13;;;;;;;12.77;11.87;;;9.20;99.90;;;;;;5047005;28;20209;-83
2022/01/03 06:35:42;;;;;;;13.20;12.20;;;9.20;99.90;;;;;;5050678;28;20218;-82
2022/01/03 06:38:09;;;;;;;13.47;12.23;;;9.20;99.90;;;;;;5035939;28;20196;-82
2022/01/03 06:40:36;;;;;;;12.63;11.93;;;9.20;99.90;;;;;;5048960;28;20221;-82
2022/01/03 06:43:04;;;;;;;14.23;13.10;;;9.20;99.90;;;;;;5056502;28;20196;-82
2022/01/03 06:45:32;;;;;;;13.17;12.37;;;9.30;99.90;;;;;;5039539;28;20704;-82
2022/01/03 06:47:59;;;;;;;14.07;13.17;;;9.30;99.90;;;;;;5052352;28;20269;-82
2022/01/03 06:50:34;;;;;;;14.00;13.00;;;9.30;99.90;;;;;;5044122;28;20219;-82
2022/01/03 06:53:01;;;;;;;13.10;11.90;;;9.30;99.90;;;;;;5051055;28;20282;-80
2022/01/03 06:55:29;;;;;;;11.70;10.90;;;9.30;99.90;;;;;;5039970;28;20288;-82
2022/01/03 06:57:57;;;;;;;12.83;11.93;;;9.30;99.90;;;;;;5063597;28;20295;-78
2022/01/03 07:00:25;;;;;;;12.30;11.30;;;9.40;99.90;;;;;;5048101;28;20231;-78
2022/01/03 07:02:54;;;;;;;11.63;10.67;;;9.40;99.90;;;;;;5048886;28;20636;-78
2022/01/03 07:05:20;;;;;;;12.20;11.47;;;9.40;99.90;;;;;;5041253;28;20265;-78
2022/01/03 07:07:49;;;;;;;12.27;11.37;;;9.40;99.90;;;;;;5044520;28;20202;-78
2022/01/03 07:10:17;;;;;;;13.40;12.40;;;9.40;99.90;;;;;;5042272;28;20210;-78
2022/01/03 07:12:44;;;;;;;12.97;11.77;;;9.40;99.90;;;;;;5040017;28;20204;-78
2022/01/03 07:20:41;;;;;;;12.30;11.20;;;9.40;99.90;;;;;;5046069;28;20253;-78
2022/01/03 07:23:09;;;;;;;11.70;10.67;;;9.40;99.90;;;;;;5047193;28;20721;-77
2022/01/03 07:25:36;;;;;;;12.33;11.23;;;9.40;99.90;;;;;;5045654;28;20211;-78
2022/01/03 07:28:04;;;;;;;12.07;11.03;;;9.40;99.90;;;;;;5047890;28;20702;-78
2022/01/03 07:30:31;;;;;;;11.37;10.57;;;9.40;99.90;;;;;;5052562;28;20215;-77
2022/01/03 07:32:57;;;;;;;11.30;10.50;;;9.40;99.90;;;;;;5047608;28;20206;-80
2022/01/03 07:35:24;;;;;;;12.27;11.00;;;9.40;99.90;;;;;;5047336;28;20207;-82
2022/01/03 07:37:53;;;;;;;11.83;10.83;;;9.50;99.90;;;;;;5037912;28;20682;-77
2022/01/03 07:40:21;;;;;;;11.70;10.70;;;9.50;99.90;;;;;;5043209;28;20229;-77
2022/01/03 07:42:48;;;;;;;11.07;10.37;;;9.50;99.90;;;;;;5037545;28;20657;-77
2022/01/03 07:45:15;;;;;;;12.43;11.27;;;9.50;99.90;;;;;;5039268;28;20207;-77
2022/01/03 07:47:42;;;;;;;11.47;10.57;;;9.50;99.90;;;;;;5037689;28;20187;-76
2022/01/03 07:50:10;;;;;;;11.40;10.60;;;9.60;99.90;;;;;;5045666;28;20218;-76
2022/01/03 07:52:37;;;;;;;11.60;10.70;;;9.60;99.90;;;;;;5044599;28;20207;-77
2022/01/03 07:55:05;;;;;;;11.10;10.10;;;9.60;99.90;;;;;;5037214;28;20199;-77
2022/01/03 07:57:33;;;;;;;11.00;10.20;;;9.70;99.90;;;;;;5045985;28;20558;-77
2022/01/03 08:00:00;;;;;;;11.37;10.57;;;9.70;99.90;;;;;;5050287;28;20203;-77
2022/01/03 08:02:28;;;;;;;11.80;10.70;;;9.80;99.90;;;;;;5045160;28;20196;-77
2022/01/03 08:04:55;;;;;;;12.37;11.03;;;9.80;99.90;;;;;;5051322;28;20211;-76
2022/01/03 08:07:22;;;;;;;12.30;11.07;;;9.80;99.90;;;;;;5042210;28;20222;-77
2022/01/03 08:09:49;;;;;;;11.50;10.60;;;9.80;99.90;;;;;;5046723;28;20557;-77
2022/01/03 08:12:16;;;;;;;10.90;10.20;;;9.90;99.90;;;;;;5050134;28;20229;-77
2022/01/03 08:14:45;;;;;;;11.30;10.50;;;10.00;99.90;;;;;;5046439;28;20192;-77
2022/01/03 08:17:12;;;;;;;11.70;10.90;;;9.90;99.90;;;;;;5047538;28;20203;-79
2022/01/03 08:19:39;;;;;;;11.60;10.80;;;9.90;99.90;;;;;;5048389;28;20202;-79
2022/01/03 08:22:05;;;;;;;11.83;11.07;;;10.00;99.90;;;;;;5043549;28;20223;-79
2022/01/03 08:24:32;;;;;;;11.57;10.77;;;9.90;99.90;;;;;;5038159;28;20210;-80
2022/01/03 08:26:59;;;;;;;11.57;10.77;;;10.00;99.90;;;;;;5049827;28;20195;-79
2022/01/03 08:29:26;;;;;;;11.27;10.40;;;10.00;99.90;;;;;;5047326;28;20202;-79
2022/01/03 08:31:54;;;;;;;11.93;11.03;;;10.10;99.90;;;;;;5050315;28;20707;-79
2022/01/03 08:34:21;;;;;;;11.27;10.30;;;10.10;99.90;;;;;;5045151;28;20214;-79
2022/01/03 08:36:48;;;;;;;12.17;10.97;;;10.10;99.90;;;;;;5048744;28;20199;-81
2022/01/03 08:39:15;;;;;;;11.90;10.80;;;10.10;99.90;;;;;;5044191;28;20207;-78
2022/01/03 08:41:42;;;;;;;11.33;10.23;;;10.20;99.90;;;;;;5031513;28;20226;-77
2022/01/03 08:44:09;;;;;;;11.57;10.57;;;10.30;99.90;;;;;;5041218;28;20226;-77
2022/01/03 08:46:36;;;;;;;11.57;10.70;;;10.30;99.90;;;;;;5046995;28;20203;-78
2022/01/03 08:49:04;;;;;;;12.23;11.33;;;10.30;99.90;;;;;;5049020;28;20202;-77
2022/01/03 08:51:31;;;;;;;12.10;11.20;;;10.40;99.90;;;;;;5046011;28;20227;-77
2022/01/03 08:53:59;;;;;;;10.70;6.73;;;10.50;99.90;;;;;;5049898;28;20550;-77
2022/01/03 08:56:25;;;;;;;11.50;10.80;;;10.50;99.90;;;;;;5040813;28;20196;-79
2022/01/03 08:58:53;;;;;;;10.67;9.97;;;10.60;99.90;;;;;;5039208;28;20562;-77
2022/01/03 09:01:20;;;;;;;11.23;10.33;;;10.60;99.90;;;;;;5041660;28;20231;-78
2022/01/03 09:03:50;;;;;;;10.93;10.23;;;10.60;99.90;;;;;;5046951;28;20203;-78
2022/01/03 09:06:18;;;;;;;3.67;2.73;;;10.70;99.90;;;;;;5040388;28;20225;-78
2022/01/03 09:08:46;;;;;;;4.43;3.03;;;10.80;99.90;;;;;;5042927;28;20198;-78
2022/01/03 09:11:13;;;;;;;4.77;2.77;;;10.90;99.90;;;;;;5040865;28;20245;-78
2022/01/03 09:13:40;;;;;;;5.57;3.10;;;10.90;99.90;;;;;;5041127;28;20211;-78
2022/01/03 09:16:07;;;;;;;3.87;2.70;;;11.00;99.90;;;;;;5046852;28;20195;-77
2022/01/03 09:18:35;;;;;;;4.83;4.43;;;11.00;99.90;;;;;;5043373;28;20204;-77
2022/01/03 09:21:02;;;;;;;8.43;7.80;;;11.10;99.90;;;;;;5051882;28;20215;-77
2022/01/03 09:23:35;;;;;;;6.97;6.37;;;11.10;99.90;;;;;;5049233;28;20688;-77
2022/01/03 09:28:51;;;;;;;7.67;7.07;;;11.10;99.90;;;;;;5043346;28;20526;-77
2022/01/03 09:31:20;;;;;;;8.53;7.80;;;11.10;99.90;;;;;;5052215;28;20222;-77
2022/01/03 09:33:47;;;;;;;8.20;7.60;;;11.20;99.90;;;;;;5041561;28;20204;-78
2022/01/03 09:36:14;;;;;;;5.80;5.30;;;11.20;99.90;;;;;;5046865;28;20200;-78
2022/01/03 09:38:42;;;;;;;5.07;4.03;;;11.20;99.90;;;;;;5051213;28;20196;-78
2022/01/03 09:41:12;;;;;;;6.90;6.30;;;11.20;99.90;;;;;;5040343;28;20223;-78
2022/01/03 09:43:45;;;;;;;10.27;9.37;;;11.20;99.90;;;;;;5035593;28;20192;-78
2022/01/03 09:46:14;;;;;;;5.07;4.60;;;11.20;99.90;;;;;;5051569;28;20216;-77
2022/01/03 09:48:43;;;;;;;11.70;10.90;;;11.30;99.90;;;;;;5040280;28;20196;-77
2022/01/03 09:51:12;;;;;;;11.60;10.90;;;11.30;99.90;;;;;;5045233;28;20224;-80
2022/01/03 09:53:42;;;;;;;10.77;9.90;;;11.30;99.90;;;;;;5041448;28;20270;-80
2022/01/03 09:56:09;;;;;;;10.97;10.13;;;11.30;99.90;;;;;;5047542;28;20200;-80
2022/01/03 09:58:36;;;;;;;10.90;10.20;;;11.30;99.90;;;;;;5046889;28;20200;-80
2022/01/03 10:01:04;;;;;;;11.37;10.57;;;11.30;99.90;;;;;;5038907;28;20234;-80
2022/01/03 10:03:31;;;;;;;12.03;11.00;;;11.30;99.90;;;;;;5050697;28;20217;-79
2022/01/03 10:05:58;;;;;;;10.97;10.20;;;11.30;99.90;;;;;;5047647;28;20211;-78
2022/01/03 10:08:24;;;;;;;10.80;10.10;;;11.40;99.90;;;;;;5036877;28;20188;-78
2022/01/03 10:10:53;;;;;;;11.93;11.23;;;11.40;99.90;;;;;;5044137;28;20237;-78
2022/01/03 10:13:21;;;;;;;11.00;10.40;;;11.40;99.90;;;;;;5038319;28;20208;-78
2022/01/03 10:15:48;;;;;;;11.40;10.60;;;11.40;99.90;;;;;;5044051;28;20206;-78
2022/01/03 10:18:19;;;;;;;12.17;11.23;;;11.40;99.90;;;;;;5049982;28;20197;-79
2022/01/03 10:20:46;;;;;;;12.90;12.20;;;11.50;99.90;;;;;;5053638;28;20231;-77
2022/01/03 10:23:15;;;;;;;11.13;10.43;;;11.50;99.90;;;;;;5049890;28;20203;-78
2022/01/03 10:25:43;;;;;;;11.33;10.20;;;11.50;99.90;;;;;;5054854;28;20222;-79
2022/01/03 10:28:11;;;;;;;11.23;10.43;;;11.50;99.90;;;;;;5046583;28;20252;-79
2022/01/03 10:30:40;;;;;;;10.73;9.97;;;11.50;99.90;;;;;;5052398;28;20215;-79
2022/01/03 10:33:10;;;;;;;10.43;9.73;;;11.50;99.90;;;;;;5047865;28;20281;-78
2022/01/03 10:35:39;;;;;;;11.00;10.30;;;11.50;99.90;;;;;;5051541;28;20192;-79
2022/01/03 10:38:06;;;;;;;11.37;10.60;;;11.50;99.90;;;;;;5052758;28;20547;-78
2022/01/03 10:40:33;;;;;;;11.03;10.30;;;11.50;99.90;;;;;;5050193;28;20225;-77
2022/01/03 10:43:15;;;;;;;10.60;9.70;;;11.50;99.90;;;;;;5054763;28;20223;-78
2022/01/03 10:45:43;;;;;;;10.10;9.40;;;11.50;99.90;;;;;;5049037;28;20207;-79
2022/01/03 10:48:30;;;;;;;10.80;9.90;;;11.50;99.90;;;;;;5052092;28;20199;-78
2022/01/03 10:50:59;;;;;;;10.70;9.90;;;11.50;99.90;;;;;;5052342;28;20744;-79
2022/01/03 10:53:35;;;;;;;10.30;9.60;;;11.40;99.90;;;;;;5052649;28;20199;-79
2022/01/03 10:56:23;;;;;;;10.63;9.73;;;11.40;99.90;;;;;;5054025;28;20203;-79
2022/01/03 10:58:52;;;;;;;11.00;10.20;;;11.50;99.90;;;;;;5060991;28;20196;-78
2022/01/03 11:01:22;;;;;;;10.80;10.10;;;11.50;99.90;;;;;;5047797;28;20254;-78
2022/01/03 11:03:50;;;;;;;11.03;10.13;;;11.50;99.90;;;;;;5049664;28;20218;-79
2022/01/03 11:06:36;;;;;;;10.87;9.87;;;11.60;99.90;;;;;;5052961;28;20214;-79
2022/01/03 11:11:51;;;;;;;10.73;10.00;;;11.70;99.90;;;;;;5047284;28;20217;-79
2022/01/03 11:14:33;;;;;;;10.40;9.50;;;11.70;99.90;;;;;;5051678;28;20427;-79
2022/01/03 11:17:01;;;;;;;10.67;9.80;;;11.80;99.90;;;;;;5047480;28;20191;-79
2022/01/03 11:19:38;;;;;;;9.80;9.10;;;11.80;99.90;;;;;;5045209;28;20197;-79
2022/01/03 11:22:05;;;;;;;9.70;9.00;;;11.90;99.90;;;;;;5047547;28;20616;-79
2022/01/03 11:24:32;;;;;;;5.10;4.70;;;12.00;99.90;;;;;;5050540;28;20209;-79
2022/01/03 11:27:00;;;;;;;6.93;2.90;;;12.00;99.90;;;;;;5047842;28;20220;-78
2022/01/03 11:29:28;;;;;;;6.40;5.63;;;12.00;99.90;;;;;;5049187;28;20246;-79
2022/01/03 11:31:59;;;;;;;7.10;6.50;;;12.00;99.90;;;;;;5046873;28;20222;-79
2022/01/03 11:34:26;;;;;;;7.43;7.00;;;12.00;99.90;;;;;;5049409;28;20198;-79
2022/01/03 11:36:53;;;;;;;11.40;10.50;;;12.00;99.90;;;;;;5051640;28;20210;-78
2022/01/03 11:39:21;;;;;;;10.97;10.17;;;12.00;99.90;;;;;;5048551;28;20212;-78
2022/01/03 11:41:50;;;;;;;5.83;3.20;;;12.00;99.90;;;;;;5050668;28;20239;-79
2022/01/03 11:44:17;;;;;;;10.50;9.90;;;12.10;99.90;;;;;;5045471;28;20699;-79
2022/01/03 11:46:45;;;;;;;11.10;10.10;;;12.10;99.90;;;;;;5048139;28;20209;-79
2022/01/03 11:49:14;;;;;;;10.83;10.13;;;12.10;99.90;;;;;;5046485;28;20687;-79
2022/01/03 11:51:42;;;;;;;10.40;9.60;;;12.10;99.90;;;;;;5049117;28;20224;-78
2022/01/03 11:54:10;;;;;;;10.10;9.40;;;12.10;99.90;;;;;;5050306;28;20208;-78
2022/01/03 11:56:43;;;;;;;10.83;9.93;;;12.10;99.90;;;;;;5045586;28;20223;-78
2022/01/03 11:59:33;;;;;;;10.00;9.20;;;12.20;99.90;;;;;;5047377;28;20296;-81
2022/01/03 12:04:58;;;;;;;10.67;9.73;;;12.20;99.90;;;;;;5043479;28;20193;-77
2022/01/03 12:07:24;;;;;;;10.43;9.67;;;12.20;99.90;;;;;;5046229;28;20310;-77
2022/01/03 12:09:53;;;;;;;10.67;9.40;;;12.20;99.90;;;;;;5048370;28;20215;-77
2022/01/03 12:12:30;;;;;;;9.80;9.20;;;12.20;99.90;;;;;;5050171;28;20223;-78
2022/01/03 12:14:59;;;;;;;9.43;8.83;;;12.20;99.90;;;;;;5047346;28;20199;-77
2022/01/03 12:17:42;;;;;;;10.83;10.03;;;12.20;99.90;;;;;;5048259;28;20570;-77
2022/01/03 12:20:11;;;;;;;9.87;9.27;;;12.20;99.90;;;;;;5048748;28;20603;-77
2022/01/03 12:22:48;;;;;;;10.00;9.20;;;12.20;99.90;;;;;;5046111;28;20568;-77
2022/01/03 12:25:25;;;;;;;9.90;9.20;;;12.20;99.90;;;;;;5048505;28;20191;-76
2022/01/03 12:27:56;;;;;;;10.00;9.30;;;12.20;99.90;;;;;;5050017;28;20383;-77
2022/01/03 12:30:27;;;;;;;10.00;9.30;;;12.20;99.90;;;;;;5049477;28;20756;-77
2022/01/03 12:33:24;;;;;;;10.40;9.50;;;12.20;99.90;;;;;;5051050;28;20192;-77
2022/01/03 12:36:19;;;;;;;10.47;9.57;;;12.20;99.90;;;;;;5046243;28;20196;-77
2022/01/03 12:39:06;;;;;;;10.30;9.60;;;12.30;99.90;;;;;;5045717;28;20195;-77
2022/01/03 12:41:45;;;;;;;10.00;9.20;;;12.30;99.90;;;;;;5043122;28;20724;-77
2022/01/03 12:44:13;;;;;;;9.83;9.20;;;12.30;99.90;;;;;;5050282;28;20204;-78
2022/01/03 12:46:40;;;;;;;9.93;9.13;;;12.30;99.90;;;;;;5038695;28;20582;-77
2022/01/03 12:49:29;;;;;;;10.37;9.57;;;12.30;99.90;;;;;;5045860;28;20253;-77
2022/01/03 12:52:16;;;;;;;9.67;9.00;;;12.30;99.90;;;;;;5035995;28;20641;-78
2022/01/03 12:54:44;;;;;;;9.93;9.23;;;12.20;99.90;;;;;;5045722;28;20650;-78
2022/01/03 12:57:16;;;;;;;10.10;9.30;;;12.20;99.90;;;;;;5046844;28;20699;-78
2022/01/03 12:59:46;;;;;;;9.67;7.97;;;12.10;99.90;;;;;;5048209;28;20291;-78
2022/01/03 13:02:25;;;;;;;5.70;4.83;;;12.10;99.90;;;;;;5046970;28;20236;-76